Helston, United Kingdom
Current Conditions -  °F | °C
As of 8:50 AM on Saturday 01 Nov 2014 (Local Time) from EGDR Reporting Station
Broken Clouds Broken Clouds  
Wind Chill: 14°   Ceiling: 30000
Heat Index: 14°   Visibility: 6mi
Dew Point: 10°   Wind: 15mph
Humidity: 77%   Direction: 210°SSW
Pressure: 30"   Gusts: NA
Location:  50.08°N, 5.2°W
Report Text: EGDR 010850Z 21013KT 9999 FEW020 SCT024 BKN300 14/10 Q1016 WHT NOSIG
Loading
Personal Weather Stations






























Interactive Weather Map
Tropical Storm Tracking
New forecast layout! Learn more

10-Day Weather Forecast

Advertisements
Track Severe Weather on mobile